sensor_id;sensor_type;location;lat;lon;timestamp;P1;durP1;ratioP1;P2;durP2;ratioP2
63050;SDS011;49136;47.416;19.402;2022-09-09T00:01:51;4.45;;;2.58;;
63050;SDS011;49136;47.416;19.402;2022-09-09T00:04:29;3.47;;;2.42;;
63050;SDS011;49136;47.416;19.402;2022-09-09T00:09:51;4.13;;;2.47;;
63050;SDS011;49136;47.416;19.402;2022-09-09T00:12:45;4.47;;;2.20;;
63050;SDS011;49136;47.416;19.402;2022-09-09T00:15:14;3.20;;;2.40;;
63050;SDS011;49136;47.416;19.402;2022-09-09T00:20:32;3.55;;;2.33;;
63050;SDS011;49136;47.416;19.402;2022-09-09T00:23:32;5.25;;;2.40;;
63050;SDS011;49136;47.416;19.402;2022-09-09T00:28:30;3.85;;;2.40;;
63050;SDS011;49136;47.416;19.402;2022-09-09T00:31:04;3.78;;;1.85;;
63050;SDS011;49136;47.416;19.402;2022-09-09T00:33:36;7.03;;;2.55;;
63050;SDS011;49136;47.416;19.402;2022-09-09T00:36:04;3.88;;;2.45;;
63050;SDS011;49136;47.416;19.402;2022-09-09T00:38:48;4.65;;;2.55;;
63050;SDS011;49136;47.416;19.402;2022-09-09T00:44:23;3.13;;;2.45;;
63050;SDS011;49136;47.416;19.402;2022-09-09T01:11:03;3.63;;;1.73;;
63050;SDS011;49136;47.416;19.402;2022-09-09T01:13:30;3.88;;;1.52;;
63050;SDS011;49136;47.416;19.402;2022-09-09T01:15:59;3.78;;;1.90;;
63050;SDS011;49136;47.416;19.402;2022-09-09T01:18:49;6.28;;;2.28;;
63050;SDS011;49136;47.416;19.402;2022-09-09T01:21:25;10.48;;;1.80;;
63050;SDS011;49136;47.416;19.402;2022-09-09T01:24:04;3.80;;;1.45;;
63050;SDS011;49136;47.416;19.402;2022-09-09T01:26:46;3.25;;;1.85;;
63050;SDS011;49136;47.416;19.402;2022-09-09T01:29:16;1.90;;;1.58;;
63050;SDS011;49136;47.416;19.402;2022-09-09T01:31:52;2.28;;;1.60;;
63050;SDS011;49136;47.416;19.402;2022-09-09T01:34:22;4.43;;;2.20;;
63050;SDS011;49136;47.416;19.402;2022-09-09T01:36:55;2.53;;;1.25;;
63050;SDS011;49136;47.416;19.402;2022-09-09T01:39:24;4.25;;;1.52;;
63050;SDS011;49136;47.416;19.402;2022-09-09T01:41:50;1.90;;;1.00;;
63050;SDS011;49136;47.416;19.402;2022-09-09T01:44:17;4.07;;;1.90;;
63050;SDS011;49136;47.416;19.402;2022-09-09T01:46:44;3.05;;;1.73;;
63050;SDS011;49136;47.416;19.402;2022-09-09T01:49:09;2.05;;;1.23;;
63050;SDS011;49136;47.416;19.402;2022-09-09T01:51:36;8.07;;;3.35;;
63050;SDS011;49136;47.416;19.402;2022-09-09T01:54:03;7.55;;;4.13;;
63050;SDS011;49136;47.416;19.402;2022-09-09T02:02:10;7.38;;;4.07;;
63050;SDS011;49136;47.416;19.402;2022-09-09T02:04:41;5.72;;;3.22;;
63050;SDS011;49136;47.416;19.402;2022-09-09T02:07:20;9.45;;;3.95;;
63050;SDS011;49136;47.416;19.402;2022-09-09T02:10:02;9.07;;;3.58;;
63050;SDS011;49136;47.416;19.402;2022-09-09T02:12:34;6.53;;;4.03;;
63050;SDS011;49136;47.416;19.402;2022-09-09T02:15:07;7.38;;;3.83;;
63050;SDS011;49136;47.416;19.402;2022-09-09T02:17:39;6.28;;;3.90;;
63050;SDS011;49136;47.416;19.402;2022-09-09T02:20:08;11.63;;;4.43;;
63050;SDS011;49136;47.416;19.402;2022-09-09T02:22:38;8.80;;;4.00;;
63050;SDS011;49136;47.416;19.402;2022-09-09T02:25:08;5.47;;;3.35;;
63050;SDS011;49136;47.416;19.402;2022-09-09T02:27:37;7.75;;;3.70;;
63050;SDS011;49136;47.416;19.402;2022-09-09T02:30:03;5.90;;;3.03;;
63050;SDS011;49136;47.416;19.402;2022-09-09T02:32:29;6.65;;;3.85;;
63050;SDS011;49136;47.416;19.402;2022-09-09T02:35:00;5.93;;;3.75;;
63050;SDS011;49136;47.416;19.402;2022-09-09T02:37:36;11.80;;;3.90;;
63050;SDS011;49136;47.416;19.402;2022-09-09T02:40:04;8.00;;;4.40;;
63050;SDS011;49136;47.416;19.402;2022-09-09T02:42:30;6.28;;;3.95;;
63050;SDS011;49136;47.416;19.402;2022-09-09T02:44:56;7.07;;;3.75;;
63050;SDS011;49136;47.416;19.402;2022-09-09T02:47:27;6.57;;;3.95;;
63050;SDS011;49136;47.416;19.402;2022-09-09T02:58:21;9.32;;;4.93;;
63050;SDS011;49136;47.416;19.402;2022-09-09T03:00:48;6.35;;;4.43;;
63050;SDS011;49136;47.416;19.402;2022-09-09T03:03:15;8.57;;;4.60;;
63050;SDS011;49136;47.416;19.402;2022-09-09T03:05:42;6.50;;;4.35;;
63050;SDS011;49136;47.416;19.402;2022-09-09T03:08:09;6.90;;;4.40;;
63050;SDS011;49136;47.416;19.402;2022-09-09T03:10:35;7.63;;;4.72;;
63050;SDS011;49136;47.416;19.402;2022-09-09T03:13:02;7.38;;;4.55;;
63050;SDS011;49136;47.416;19.402;2022-09-09T03:15:30;6.78;;;4.35;;
63050;SDS011;49136;47.416;19.402;2022-09-09T03:17:57;6.32;;;3.85;;
63050;SDS011;49136;47.416;19.402;2022-09-09T03:20:31;11.07;;;4.70;;
63050;SDS011;49136;47.416;19.402;2022-09-09T03:22:58;6.78;;;4.20;;
63050;SDS011;49136;47.416;19.402;2022-09-09T03:25:24;15.25;;;4.78;;
63050;SDS011;49136;47.416;19.402;2022-09-09T03:27:51;7.95;;;4.43;;
63050;SDS011;49136;47.416;19.402;2022-09-09T03:30:19;11.82;;;4.95;;
63050;SDS011;49136;47.416;19.402;2022-09-09T03:32:46;8.38;;;5.03;;
63050;SDS011;49136;47.416;19.402;2022-09-09T03:35:11;8.82;;;4.97;;
63050;SDS011;49136;47.416;19.402;2022-09-09T03:37:36;12.27;;;5.38;;
63050;SDS011;49136;47.416;19.402;2022-09-09T03:40:03;11.80;;;5.38;;
63050;SDS011;49136;47.416;19.402;2022-09-09T03:42:29;11.10;;;4.82;;
63050;SDS011;49136;47.416;19.402;2022-09-09T03:44:55;7.50;;;4.13;;
63050;SDS011;49136;47.416;19.402;2022-09-09T03:47:22;9.40;;;5.38;;
63050;SDS011;49136;47.416;19.402;2022-09-09T03:49:48;6.57;;;4.18;;
63050;SDS011;49136;47.416;19.402;2022-09-09T03:52:14;7.93;;;5.25;;
63050;SDS011;49136;47.416;19.402;2022-09-09T03:54:40;9.57;;;5.20;;
63050;SDS011;49136;47.416;19.402;2022-09-09T03:57:07;7.90;;;4.45;;
63050;SDS011;49136;47.416;19.402;2022-09-09T03:59:33;9.77;;;4.75;;
63050;SDS011;49136;47.416;19.402;2022-09-09T04:02:00;9.43;;;4.88;;
63050;SDS011;49136;47.416;19.402;2022-09-09T04:04:25;9.07;;;5.13;;
63050;SDS011;49136;47.416;19.402;2022-09-09T04:06:51;10.38;;;5.43;;
63050;SDS011;49136;47.416;19.402;2022-09-09T04:09:17;10.13;;;4.53;;
63050;SDS011;49136;47.416;19.402;2022-09-09T04:11:42;7.75;;;4.68;;
63050;SDS011;49136;47.416;19.402;2022-09-09T04:14:08;7.68;;;4.82;;
63050;SDS011;49136;47.416;19.402;2022-09-09T04:16:33;11.85;;;4.88;;
63050;SDS011;49136;47.416;19.402;2022-09-09T04:19:02;7.78;;;4.28;;
63050;SDS011;49136;47.416;19.402;2022-09-09T04:21:29;10.82;;;4.95;;
63050;SDS011;49136;47.416;19.402;2022-09-09T04:23:55;11.43;;;4.68;;
63050;SDS011;49136;47.416;19.402;2022-09-09T04:26:20;9.32;;;5.07;;
63050;SDS011;49136;47.416;19.402;2022-09-09T04:28:45;6.57;;;4.20;;
63050;SDS011;49136;47.416;19.402;2022-09-09T04:31:15;6.45;;;4.18;;
63050;SDS011;49136;47.416;19.402;2022-09-09T04:33:43;9.93;;;5.10;;
63050;SDS011;49136;47.416;19.402;2022-09-09T04:36:08;7.65;;;4.45;;
63050;SDS011;49136;47.416;19.402;2022-09-09T04:38:33;14.10;;;5.78;;
63050;SDS011;49136;47.416;19.402;2022-09-09T04:40:59;8.70;;;4.50;;
63050;SDS011;49136;47.416;19.402;2022-09-09T04:43:24;6.88;;;4.25;;
63050;SDS011;49136;47.416;19.402;2022-09-09T04:45:50;9.13;;;5.00;;
63050;SDS011;49136;47.416;19.402;2022-09-09T04:48:16;8.65;;;4.88;;
63050;SDS011;49136;47.416;19.402;2022-09-09T04:50:42;8.32;;;4.40;;
63050;SDS011;49136;47.416;19.402;2022-09-09T04:53:07;11.65;;;5.28;;
63050;SDS011;49136;47.416;19.402;2022-09-09T04:55:33;12.23;;;4.72;;
63050;SDS011;49136;47.416;19.402;2022-09-09T04:58:06;8.32;;;4.50;;
63050;SDS011;49136;47.416;19.402;2022-09-09T05:00:33;12.77;;;4.63;;
63050;SDS011;49136;47.416;19.402;2022-09-09T05:03:04;9.77;;;5.43;;
63050;SDS011;49136;47.416;19.402;2022-09-09T05:05:31;7.32;;;4.57;;
63050;SDS011;49136;47.416;19.402;2022-09-09T05:08:05;8.15;;;4.20;;
63050;SDS011;49136;47.416;19.402;2022-09-09T05:10:33;10.80;;;4.50;;
63050;SDS011;49136;47.416;19.402;2022-09-09T05:12:59;7.78;;;4.50;;
63050;SDS011;49136;47.416;19.402;2022-09-09T05:15:24;8.52;;;4.35;;
63050;SDS011;49136;47.416;19.402;2022-09-09T05:17:50;6.95;;;4.20;;
63050;SDS011;49136;47.416;19.402;2022-09-09T05:20:17;10.90;;;4.43;;
63050;SDS011;49136;47.416;19.402;2022-09-09T05:22:43;5.82;;;3.75;;
63050;SDS011;49136;47.416;19.402;2022-09-09T05:25:08;12.98;;;4.82;;
63050;SDS011;49136;47.416;19.402;2022-09-09T05:27:34;6.10;;;4.30;;
63050;SDS011;49136;47.416;19.402;2022-09-09T05:29:59;6.75;;;4.03;;
63050;SDS011;49136;47.416;19.402;2022-09-09T05:32:25;8.73;;;4.35;;
63050;SDS011;49136;47.416;19.402;2022-09-09T05:34:51;7.82;;;5.03;;
63050;SDS011;49136;47.416;19.402;2022-09-09T05:37:17;7.72;;;4.57;;
63050;SDS011;49136;47.416;19.402;2022-09-09T05:39:43;8.20;;;4.68;;
63050;SDS011;49136;47.416;19.402;2022-09-09T05:42:08;9.05;;;5.03;;
63050;SDS011;49136;47.416;19.402;2022-09-09T05:44:34;17.77;;;5.45;;
63050;SDS011;49136;47.416;19.402;2022-09-09T05:46:59;7.03;;;5.03;;
63050;SDS011;49136;47.416;19.402;2022-09-09T05:49:25;6.68;;;4.20;;
63050;SDS011;49136;47.416;19.402;2022-09-09T05:51:50;7.38;;;4.70;;
63050;SDS011;49136;47.416;19.402;2022-09-09T05:54:16;9.35;;;5.30;;
63050;SDS011;49136;47.416;19.402;2022-09-09T05:56:41;8.88;;;5.30;;
63050;SDS011;49136;47.416;19.402;2022-09-09T05:59:07;10.82;;;5.72;;
63050;SDS011;49136;47.416;19.402;2022-09-09T06:01:34;12.20;;;5.20;;
63050;SDS011;49136;47.416;19.402;2022-09-09T06:04:01;10.50;;;5.57;;
63050;SDS011;49136;47.416;19.402;2022-09-09T06:06:30;10.75;;;5.47;;
63050;SDS011;49136;47.416;19.402;2022-09-09T06:09:01;15.32;;;6.97;;
63050;SDS011;49136;47.416;19.402;2022-09-09T06:11:31;8.68;;;5.53;;
63050;SDS011;49136;47.416;19.402;2022-09-09T06:13:57;10.82;;;6.65;;
63050;SDS011;49136;47.416;19.402;2022-09-09T06:16:23;10.90;;;5.90;;
63050;SDS011;49136;47.416;19.402;2022-09-09T06:18:51;7.30;;;5.50;;
63050;SDS011;49136;47.416;19.402;2022-09-09T06:21:19;13.65;;;5.63;;
63050;SDS011;49136;47.416;19.402;2022-09-09T06:23:46;10.38;;;5.43;;
63050;SDS011;49136;47.416;19.402;2022-09-09T06:26:13;13.07;;;6.18;;
63050;SDS011;49136;47.416;19.402;2022-09-09T06:28:42;8.80;;;4.63;;
63050;SDS011;49136;47.416;19.402;2022-09-09T06:31:08;11.23;;;4.57;;
63050;SDS011;49136;47.416;19.402;2022-09-09T06:33:37;8.40;;;4.95;;
63050;SDS011;49136;47.416;19.402;2022-09-09T06:36:07;8.27;;;5.07;;
63050;SDS011;49136;47.416;19.402;2022-09-09T06:38:37;7.18;;;4.50;;
63050;SDS011;49136;47.416;19.402;2022-09-09T06:41:02;11.27;;;5.47;;
63050;SDS011;49136;47.416;19.402;2022-09-09T06:43:28;7.78;;;4.82;;
63050;SDS011;49136;47.416;19.402;2022-09-09T06:45:57;9.35;;;6.07;;
63050;SDS011;49136;47.416;19.402;2022-09-09T06:48:27;8.15;;;5.22;;
63050;SDS011;49136;47.416;19.402;2022-09-09T06:51:00;7.55;;;5.20;;
63050;SDS011;49136;47.416;19.402;2022-09-09T06:53:26;8.75;;;5.00;;
63050;SDS011;49136;47.416;19.402;2022-09-09T06:55:52;9.98;;;5.43;;
63050;SDS011;49136;47.416;19.402;2022-09-09T06:58:18;10.45;;;5.05;;
63050;SDS011;49136;47.416;19.402;2022-09-09T07:00:43;8.18;;;4.53;;
63050;SDS011;49136;47.416;19.402;2022-09-09T07:03:09;10.88;;;5.38;;
63050;SDS011;49136;47.416;19.402;2022-09-09T07:05:35;7.38;;;4.65;;
63050;SDS011;49136;47.416;19.402;2022-09-09T07:08:01;8.23;;;5.10;;
63050;SDS011;49136;47.416;19.402;2022-09-09T07:10:27;7.55;;;4.85;;
63050;SDS011;49136;47.416;19.402;2022-09-09T07:12:52;7.82;;;4.53;;
63050;SDS011;49136;47.416;19.402;2022-09-09T07:15:18;5.93;;;4.38;;
63050;SDS011;49136;47.416;19.402;2022-09-09T07:17:44;6.25;;;3.85;;
63050;SDS011;49136;47.416;19.402;2022-09-09T07:20:10;6.47;;;4.57;;
63050;SDS011;49136;47.416;19.402;2022-09-09T07:22:36;6.93;;;4.35;;
63050;SDS011;49136;47.416;19.402;2022-09-09T07:25:01;10.63;;;4.90;;
63050;SDS011;49136;47.416;19.402;2022-09-09T07:27:28;6.53;;;3.95;;
63050;SDS011;49136;47.416;19.402;2022-09-09T07:29:53;8.35;;;3.88;;
63050;SDS011;49136;47.416;19.402;2022-09-09T07:32:19;11.43;;;3.90;;
63050;SDS011;49136;47.416;19.402;2022-09-09T07:34:45;6.53;;;4.30;;
63050;SDS011;49136;47.416;19.402;2022-09-09T07:37:11;5.30;;;4.28;;
63050;SDS011;49136;47.416;19.402;2022-09-09T07:39:38;5.80;;;3.40;;
63050;SDS011;49136;47.416;19.402;2022-09-09T07:42:04;4.93;;;3.60;;
63050;SDS011;49136;47.416;19.402;2022-09-09T07:44:30;7.55;;;3.97;;
63050;SDS011;49136;47.416;19.402;2022-09-09T07:46:57;9.38;;;4.32;;
63050;SDS011;49136;47.416;19.402;2022-09-09T07:49:22;6.95;;;4.00;;
63050;SDS011;49136;47.416;19.402;2022-09-09T07:51:48;5.30;;;3.97;;
63050;SDS011;49136;47.416;19.402;2022-09-09T07:54:15;8.77;;;4.25;;
63050;SDS011;49136;47.416;19.402;2022-09-09T07:56:42;4.85;;;3.20;;
63050;SDS011;49136;47.416;19.402;2022-09-09T07:59:08;4.63;;;3.10;;
63050;SDS011;49136;47.416;19.402;2022-09-09T08:01:36;6.45;;;3.28;;
63050;SDS011;49136;47.416;19.402;2022-09-09T08:04:07;4.45;;;3.33;;
63050;SDS011;49136;47.416;19.402;2022-09-09T08:06:35;3.83;;;2.90;;
63050;SDS011;49136;47.416;19.402;2022-09-09T08:09:05;3.80;;;2.63;;
63050;SDS011;49136;47.416;19.402;2022-09-09T08:11:31;6.00;;;2.97;;
63050;SDS011;49136;47.416;19.402;2022-09-09T08:13:58;3.80;;;3.10;;
63050;SDS011;49136;47.416;19.402;2022-09-09T08:16:25;4.03;;;2.80;;
63050;SDS011;49136;47.416;19.402;2022-09-09T08:18:52;5.47;;;3.00;;
63050;SDS011;49136;47.416;19.402;2022-09-09T08:21:21;4.80;;;2.47;;
63050;SDS011;49136;47.416;19.402;2022-09-09T08:23:49;8.13;;;3.30;;
63050;SDS011;49136;47.416;19.402;2022-09-09T08:26:27;3.35;;;2.78;;
63050;SDS011;49136;47.416;19.402;2022-09-09T08:28:57;4.10;;;2.55;;
63050;SDS011;49136;47.416;19.402;2022-09-09T08:31:28;2.40;;;2.15;;
63050;SDS011;49136;47.416;19.402;2022-09-09T08:33:58;4.40;;;2.78;;
63050;SDS011;49136;47.416;19.402;2022-09-09T08:36:25;2.58;;;2.30;;
63050;SDS011;49136;47.416;19.402;2022-09-09T08:38:54;2.30;;;2.10;;
63050;SDS011;49136;47.416;19.402;2022-09-09T08:44:00;2.17;;;1.80;;
63050;SDS011;49136;47.416;19.402;2022-09-09T08:46:35;2.28;;;1.60;;
63050;SDS011;49136;47.416;19.402;2022-09-09T08:52:13;1.95;;;1.73;;
63050;SDS011;49136;47.416;19.402;2022-09-09T08:54:52;3.28;;;1.77;;
63050;SDS011;49136;47.416;19.402;2022-09-09T08:57:23;2.63;;;1.63;;
63050;SDS011;49136;47.416;19.402;2022-09-09T08:59:52;2.78;;;1.80;;
63050;SDS011;49136;47.416;19.402;2022-09-09T09:12:46;3.67;;;1.85;;
63050;SDS011;49136;47.416;19.402;2022-09-09T09:15:25;2.38;;;1.58;;
63050;SDS011;49136;47.416;19.402;2022-09-09T09:17:55;3.53;;;1.65;;
63050;SDS011;49136;47.416;19.402;2022-09-09T09:20:29;3.00;;;1.60;;
63050;SDS011;49136;47.416;19.402;2022-09-09T09:23:02;3.88;;;2.50;;
63050;SDS011;49136;47.416;19.402;2022-09-09T09:25:34;7.15;;;1.75;;
63050;SDS011;49136;47.416;19.402;2022-09-09T09:28:13;4.35;;;2.08;;
63050;SDS011;49136;47.416;19.402;2022-09-09T09:30:53;1.67;;;1.45;;
63050;SDS011;49136;47.416;19.402;2022-09-09T09:36:18;1.85;;;1.45;;
63050;SDS011;49136;47.416;19.402;2022-09-09T09:38:55;2.45;;;1.48;;
63050;SDS011;49136;47.416;19.402;2022-09-09T09:41:29;1.40;;;1.20;;
63050;SDS011;49136;47.416;19.402;2022-09-09T09:43:56;1.35;;;1.25;;
63050;SDS011;49136;47.416;19.402;2022-09-09T09:46:22;4.00;;;1.27;;
63050;SDS011;49136;47.416;19.402;2022-09-09T09:49:03;4.15;;;1.50;;
63050;SDS011;49136;47.416;19.402;2022-09-09T09:51:30;1.95;;;1.13;;
63050;SDS011;49136;47.416;19.402;2022-09-09T09:56:56;1.27;;;1.17;;
63050;SDS011;49136;47.416;19.402;2022-09-09T09:59:35;3.08;;;1.08;;
63050;SDS011;49136;47.416;19.402;2022-09-09T10:02:22;1.33;;;1.00;;
63050;SDS011;49136;47.416;19.402;2022-09-09T10:05:00;1.45;;;1.27;;
63050;SDS011;49136;47.416;19.402;2022-09-09T10:07:29;1.85;;;1.15;;
63050;SDS011;49136;47.416;19.402;2022-09-09T10:09:55;1.45;;;1.30;;
63050;SDS011;49136;47.416;19.402;2022-09-09T10:15:06;1.40;;;1.20;;
63050;SDS011;49136;47.416;19.402;2022-09-09T10:23:02;1.10;;;1.00;;
63050;SDS011;49136;47.416;19.402;2022-09-09T10:26:03;3.17;;;1.30;;
63050;SDS011;49136;47.416;19.402;2022-09-09T10:36:46;2.00;;;1.00;;
63050;SDS011;49136;47.416;19.402;2022-09-09T10:39:57;1.27;;;0.90;;
63050;SDS011;49136;47.416;19.402;2022-09-09T10:42:24;2.05;;;1.23;;
63050;SDS011;49136;47.416;19.402;2022-09-09T10:44:58;1.50;;;1.23;;
63050;SDS011;49136;47.416;19.402;2022-09-09T10:55:48;2.92;;;1.27;;
63050;SDS011;49136;47.416;19.402;2022-09-09T10:58:27;2.33;;;1.00;;
63050;SDS011;49136;47.416;19.402;2022-09-09T11:01:00;3.72;;;1.20;;
63050;SDS011;49136;47.416;19.402;2022-09-09T11:03:34;1.67;;;1.30;;
63050;SDS011;49136;47.416;19.402;2022-09-09T11:08:35;1.58;;;1.35;;
63050;SDS011;49136;47.416;19.402;2022-09-09T11:11:06;1.23;;;1.05;;
63050;SDS011;49136;47.416;19.402;2022-09-09T11:16:29;1.25;;;1.10;;
63050;SDS011;49136;47.416;19.402;2022-09-09T11:21:52;3.90;;;1.08;;
63050;SDS011;49136;47.416;19.402;2022-09-09T11:24:21;2.90;;;0.93;;
63050;SDS011;49136;47.416;19.402;2022-09-09T11:27:06;1.85;;;1.10;;
63050;SDS011;49136;47.416;19.402;2022-09-09T11:40:27;4.90;;;1.20;;
63050;SDS011;49136;47.416;19.402;2022-09-09T11:43:09;2.15;;;1.10;;
63050;SDS011;49136;47.416;19.402;2022-09-09T11:45:57;1.30;;;0.90;;
63050;SDS011;49136;47.416;19.402;2022-09-09T11:51:25;0.98;;;0.98;;
63050;SDS011;49136;47.416;19.402;2022-09-09T11:53:54;4.55;;;0.98;;
63050;SDS011;49136;47.416;19.402;2022-09-09T11:59:17;1.83;;;1.20;;
63050;SDS011;49136;47.416;19.402;2022-09-09T12:01:49;1.50;;;0.80;;
63050;SDS011;49136;47.416;19.402;2022-09-09T12:09:24;2.55;;;1.33;;
63050;SDS011;49136;47.416;19.402;2022-09-09T12:17:09;2.85;;;1.10;;
